createdAt,value
2023-12-17T00:00:50.830Z,99.73
2023-12-17T00:03:20.739Z,99.61
2023-12-17T00:05:49.919Z,99.39
2023-12-17T00:08:21.978Z,100.00
2023-12-17T00:10:50.418Z,100.00
2023-12-17T00:13:20.748Z,100.00
2023-12-17T00:15:48.750Z,100.00
2023-12-17T00:18:16.893Z,100.00
2023-12-17T00:20:45.282Z,100.00
2023-12-17T00:23:13.098Z,100.00
2023-12-17T00:25:41.083Z,100.00
2023-12-17T00:28:08.957Z,100.00
2023-12-17T00:30:38.552Z,100.00
2023-12-17T00:33:06.908Z,100.00
2023-12-17T00:35:35.462Z,100.00
2023-12-17T00:38:03.397Z,100.00
2023-12-17T00:40:31.262Z,100.00
2023-12-17T00:42:59.370Z,100.00
2023-12-17T00:45:27.199Z,100.00
2023-12-17T00:47:56.451Z,100.00
2023-12-17T00:50:24.562Z,100.00
2023-12-17T00:52:52.533Z,100.00
2023-12-17T00:55:20.481Z,100.00
2023-12-17T00:57:48.233Z,100.00
2023-12-17T01:00:16.938Z,100.00
2023-12-17T01:02:45.183Z,100.00
2023-12-17T01:05:14.507Z,100.00
2023-12-17T01:07:42.573Z,100.00
2023-12-17T01:10:10.669Z,100.00
2023-12-17T01:12:39.088Z,100.00
2023-12-17T01:15:07.696Z,100.00
2023-12-17T01:17:35.956Z,100.00
2023-12-17T01:20:04.028Z,100.00
2023-12-17T01:22:33.271Z,100.00
2023-12-17T01:25:01.605Z,100.00
2023-12-17T01:27:29.448Z,100.00
2023-12-17T01:29:57.926Z,100.00
2023-12-17T01:32:25.760Z,100.00
2023-12-17T01:34:54.139Z,100.00
2023-12-17T01:37:22.201Z,100.00
2023-12-17T01:39:52.409Z,100.00
2023-12-17T01:42:20.164Z,100.00
2023-12-17T01:44:48.251Z,100.00
2023-12-17T01:47:16.059Z,100.00
2023-12-17T01:49:44.144Z,100.00
2023-12-17T01:52:12.052Z,100.00
2023-12-17T01:54:40.267Z,100.00
2023-12-17T01:57:09.714Z,100.00
2023-12-17T01:59:38.164Z,100.00
2023-12-17T02:02:06.103Z,100.00
2023-12-17T02:04:33.991Z,100.00
2023-12-17T02:07:02.300Z,100.00
2023-12-17T02:09:30.136Z,100.00
2023-12-17T02:11:58.258Z,100.00
2023-12-17T02:14:27.909Z,100.00
2023-12-17T02:16:55.803Z,100.00
2023-12-17T02:19:23.959Z,100.00
2023-12-17T02:21:52.019Z,100.00
2023-12-17T02:24:21.178Z,100.00
2023-12-17T02:26:48.968Z,100.00
2023-12-17T02:29:16.792Z,100.00
2023-12-17T02:31:44.633Z,100.00
2023-12-17T02:34:12.880Z,100.00
2023-12-17T02:36:43.744Z,100.00
2023-12-17T02:39:12.174Z,100.00
2023-12-17T02:41:41.288Z,100.00
2023-12-17T02:44:09.334Z,100.00
2023-12-17T02:46:37.111Z,100.00
2023-12-17T02:49:05.323Z,100.00
2023-12-17T02:51:33.193Z,100.00
2023-12-17T02:54:01.305Z,100.00
2023-12-17T02:56:29.067Z,100.00
2023-12-17T02:58:58.393Z,100.00
2023-12-17T03:01:26.185Z,100.00
2023-12-17T03:03:54.170Z,100.00
2023-12-17T03:06:22.213Z,100.00
2023-12-17T03:08:50.005Z,100.00
2023-12-17T03:11:18.036Z,100.00
2023-12-17T03:13:46.164Z,100.00
2023-12-17T03:16:15.507Z,100.00
2023-12-17T03:18:43.834Z,100.00
2023-12-17T03:21:14.115Z,100.00
2023-12-17T03:23:41.898Z,100.00
2023-12-17T03:26:10.028Z,100.00
2023-12-17T03:28:37.886Z,100.00
2023-12-17T03:31:06.539Z,100.00
2023-12-17T03:33:35.820Z,100.00
2023-12-17T03:36:03.654Z,100.00
2023-12-17T03:38:31.715Z,100.00
2023-12-17T03:40:59.441Z,100.00
2023-12-17T03:43:27.455Z,100.00
2023-12-17T03:45:55.308Z,100.00
2023-12-17T03:48:23.444Z,100.00
2023-12-17T03:50:52.840Z,100.00
2023-12-17T03:53:20.805Z,100.00
2023-12-17T03:55:48.576Z,100.00
2023-12-17T03:58:16.581Z,100.00
2023-12-17T04:00:44.382Z,100.00
2023-12-17T04:03:12.195Z,100.00
2023-12-17T04:05:39.982Z,100.00
2023-12-17T04:08:09.130Z,100.00
2023-12-17T04:10:37.332Z,100.00
2023-12-17T04:13:05.131Z,100.00
2023-12-17T04:15:33.106Z,100.00
2023-12-17T04:18:01.010Z,100.00
2023-12-17T04:20:29.062Z,100.00
2023-12-17T04:22:56.800Z,100.00
2023-12-17T04:25:26.479Z,100.00
2023-12-17T04:27:54.396Z,100.00
2023-12-17T04:30:22.267Z,100.00
2023-12-17T04:32:50.356Z,100.00
2023-12-17T04:35:18.343Z,100.00
2023-12-17T04:37:46.583Z,100.00
2023-12-17T04:40:15.693Z,100.00
2023-12-17T04:42:45.505Z,100.00
2023-12-17T04:45:13.293Z,100.00
2023-12-17T04:47:41.530Z,100.00
2023-12-17T04:50:10.533Z,100.00
2023-12-17T04:52:38.306Z,100.00
2023-12-17T04:55:07.381Z,100.00
2023-12-17T04:57:35.261Z,100.00
2023-12-17T05:00:07.012Z,100.00
2023-12-17T05:02:34.962Z,100.00
2023-12-17T05:05:02.847Z,100.00
2023-12-17T05:07:30.914Z,100.00
2023-12-17T05:09:59.088Z,100.00
2023-12-17T05:12:27.205Z,100.00
2023-12-17T05:14:55.033Z,100.00
2023-12-17T05:17:24.726Z,100.00
2023-12-17T05:19:52.790Z,100.00
2023-12-17T05:22:20.822Z,100.00
2023-12-17T05:24:49.774Z,100.00
2023-12-17T05:27:17.756Z,100.00
2023-12-17T05:29:45.818Z,100.00
2023-12-17T05:32:13.586Z,100.00
2023-12-17T05:34:42.724Z,100.00
2023-12-17T05:37:10.521Z,100.00
2023-12-17T05:39:38.627Z,100.00
2023-12-17T05:42:06.741Z,100.00
2023-12-17T05:44:34.539Z,100.00
2023-12-17T05:47:02.509Z,100.00
2023-12-17T05:49:30.410Z,100.00
2023-12-17T05:51:59.917Z,100.00
2023-12-17T05:54:27.789Z,100.00
2023-12-17T05:56:55.985Z,100.00
2023-12-17T05:59:24.896Z,100.00
2023-12-17T06:01:52.961Z,100.00
2023-12-17T06:04:21.833Z,100.00
2023-12-17T06:06:49.774Z,100.00
2023-12-17T06:09:19.520Z,100.00
2023-12-17T06:11:47.313Z,100.00
2023-12-17T06:14:15.097Z,100.00
2023-12-17T06:16:43.629Z,100.00
2023-12-17T06:19:11.767Z,100.00
2023-12-17T06:21:39.894Z,100.00
2023-12-17T06:24:08.831Z,100.00
2023-12-17T06:26:38.212Z,100.00
2023-12-17T06:29:06.024Z,100.00
2023-12-17T06:31:34.123Z,100.00
2023-12-17T06:34:02.162Z,100.00
2023-12-17T06:36:30.286Z,100.00
2023-12-17T06:38:58.071Z,100.00
2023-12-17T06:41:26.100Z,100.00
2023-12-17T06:43:55.477Z,100.00
2023-12-17T06:46:23.313Z,100.00
2023-12-17T06:48:51.912Z,100.00
2023-12-17T06:51:20.326Z,100.00
2023-12-17T06:53:51.142Z,100.00
2023-12-17T06:56:20.380Z,100.00
2023-12-17T06:58:48.311Z,100.00
2023-12-17T07:01:17.802Z,100.00
2023-12-17T07:03:45.610Z,100.00
2023-12-17T07:06:13.760Z,100.00
2023-12-17T07:08:42.758Z,100.00
2023-12-17T07:11:11.132Z,100.00
2023-12-17T07:13:39.071Z,100.00
2023-12-17T07:16:08.029Z,100.00
2023-12-17T07:18:37.487Z,100.00
2023-12-17T07:21:06.103Z,100.00
2023-12-17T07:23:33.935Z,100.00
2023-12-17T07:26:01.633Z,100.00
2023-12-17T07:28:29.398Z,100.00
2023-12-17T07:30:57.488Z,100.00
2023-12-17T07:33:25.879Z,100.00
2023-12-17T07:35:55.279Z,100.00
2023-12-17T07:38:23.294Z,100.00
2023-12-17T07:40:51.047Z,100.00
2023-12-17T07:43:19.279Z,100.00
2023-12-17T07:45:47.016Z,100.00
2023-12-17T07:48:15.204Z,100.00
2023-12-17T07:50:43.662Z,100.00
2023-12-17T07:53:13.133Z,100.00
2023-12-17T07:55:40.990Z,100.00
2023-12-17T07:58:09.944Z,100.00
2023-12-17T08:00:37.835Z,100.00
2023-12-17T08:03:05.705Z,100.00
2023-12-17T08:05:33.956Z,100.00
2023-12-17T08:08:01.876Z,100.00
2023-12-17T08:10:31.520Z,100.00
2023-12-17T08:13:00.106Z,100.00
2023-12-17T08:15:28.079Z,100.00
2023-12-17T08:17:56.544Z,100.00
2023-12-17T08:20:24.420Z,100.00
2023-12-17T08:22:52.219Z,100.00
2023-12-17T08:25:20.629Z,100.00
2023-12-17T08:27:49.692Z,100.00
2023-12-17T08:30:19.257Z,100.00
2023-12-17T08:32:47.240Z,100.00
2023-12-17T08:35:16.467Z,100.00
2023-12-17T08:37:44.312Z,100.00
2023-12-17T08:40:13.410Z,100.00
2023-12-17T08:42:42.708Z,100.00
2023-12-17T08:45:13.299Z,100.00
2023-12-17T08:47:42.292Z,100.00
2023-12-17T08:50:10.789Z,100.00
2023-12-17T08:52:39.122Z,100.00
2023-12-17T08:55:08.168Z,100.00
2023-12-17T08:57:36.049Z,100.00
2023-12-17T09:00:06.339Z,100.00
2023-12-17T09:02:36.120Z,100.00
2023-12-17T09:05:04.421Z,99.20
2023-12-17T09:07:32.513Z,98.64
2023-12-17T09:10:00.765Z,98.07
2023-12-17T09:12:29.212Z,97.17
2023-12-17T09:14:57.222Z,98.41
2023-12-17T09:17:25.902Z,99.09
2023-12-17T09:19:55.636Z,98.29
2023-12-17T09:22:23.495Z,97.54
2023-12-17T09:24:51.770Z,98.98
2023-12-17T09:27:20.522Z,98.32
2023-12-17T09:29:48.313Z,98.04
2023-12-17T09:32:16.396Z,98.42
2023-12-17T09:34:44.230Z,98.97
2023-12-17T09:37:13.721Z,99.48
2023-12-17T09:39:41.480Z,99.97
2023-12-17T09:42:09.760Z,99.77
2023-12-17T09:44:37.712Z,98.73
2023-12-17T09:47:06.470Z,98.17
2023-12-17T09:49:34.508Z,97.71
2023-12-17T09:52:08.351Z,97.24
2023-12-17T09:54:37.571Z,96.77
2023-12-17T09:57:08.588Z,96.97
2023-12-17T09:59:36.694Z,96.22
2023-12-17T10:02:04.720Z,96.25
2023-12-17T10:04:32.821Z,96.56
2023-12-17T10:07:00.680Z,96.61
2023-12-17T10:09:29.156Z,94.94
2023-12-17T10:11:59.496Z,95.40
2023-12-17T10:14:29.536Z,95.13
2023-12-17T10:16:57.301Z,94.98
2023-12-17T10:19:28.113Z,95.17
2023-12-17T10:21:56.913Z,92.86
2023-12-17T10:24:36.781Z,91.80
2023-12-17T10:27:16.084Z,93.61
2023-12-17T10:29:45.224Z,91.70
2023-12-17T10:32:13.403Z,91.18
2023-12-17T10:34:42.968Z,90.45
2023-12-17T10:37:11.162Z,91.58
2023-12-17T10:39:40.096Z,92.00
2023-12-17T10:42:10.703Z,92.92
2023-12-17T10:44:41.424Z,92.29
2023-12-17T10:47:10.546Z,91.55
2023-12-17T10:49:38.728Z,91.55
2023-12-17T10:52:09.245Z,91.99
2023-12-17T10:54:37.226Z,92.72
2023-12-17T10:57:07.793Z,92.84
2023-12-17T10:59:41.356Z,92.10
2023-12-17T11:02:12.560Z,91.56
2023-12-17T11:04:46.358Z,91.99
2023-12-17T11:07:27.035Z,91.69
2023-12-17T11:10:02.994Z,90.98
2023-12-17T11:12:31.406Z,91.49
2023-12-17T11:15:02.190Z,90.22
2023-12-17T11:17:30.492Z,90.66
2023-12-17T11:20:00.550Z,90.43
2023-12-17T11:22:30.130Z,91.04
2023-12-17T11:24:59.568Z,90.26
2023-12-17T11:27:28.222Z,90.93
2023-12-17T11:29:57.725Z,90.42
2023-12-17T11:32:28.547Z,91.22
2023-12-17T11:34:58.179Z,89.09
2023-12-17T11:37:31.505Z,89.26
2023-12-17T11:39:59.438Z,88.33
2023-12-17T11:42:27.368Z,88.12
2023-12-17T11:44:55.552Z,88.19
2023-12-17T11:47:28.505Z,87.90
2023-12-17T11:50:00.841Z,87.53
2023-12-17T11:52:31.186Z,87.62
2023-12-17T11:54:59.238Z,87.55
2023-12-17T11:57:28.457Z,86.72
2023-12-17T11:59:56.448Z,86.70
2023-12-17T12:02:28.514Z,85.14
2023-12-17T12:04:57.804Z,85.88
2023-12-17T12:07:26.591Z,85.79
2023-12-17T12:10:07.504Z,85.75
2023-12-17T12:12:36.008Z,85.57
2023-12-17T12:15:05.019Z,85.36
2023-12-17T12:17:41.315Z,85.42
2023-12-17T12:20:14.068Z,85.55
2023-12-17T12:22:47.239Z,84.93
2023-12-17T12:25:21.217Z,85.16
2023-12-17T12:27:49.322Z,85.69
2023-12-17T12:30:30.251Z,84.89
2023-12-17T12:33:09.573Z,84.83
2023-12-17T12:35:39.257Z,84.77
2023-12-17T12:38:23.311Z,82.97
2023-12-17T12:40:52.362Z,83.63
2023-12-17T12:43:21.294Z,84.19
2023-12-17T12:45:50.287Z,84.41
2023-12-17T12:48:19.859Z,83.45
2023-12-17T12:50:49.976Z,83.59
2023-12-17T12:53:26.027Z,83.19
2023-12-17T12:55:55.676Z,83.15
2023-12-17T12:58:24.149Z,82.82
2023-12-17T13:00:52.266Z,82.92
2023-12-17T13:03:21.127Z,84.36
2023-12-17T13:05:51.469Z,83.31
2023-12-17T13:08:21.486Z,83.94
2023-12-17T13:10:49.817Z,84.02
2023-12-17T13:13:17.839Z,84.48
2023-12-17T13:15:45.696Z,83.82
2023-12-17T13:18:13.807Z,84.50
2023-12-17T13:20:41.902Z,83.45
2023-12-17T13:23:11.484Z,84.33
2023-12-17T13:25:40.281Z,84.17
2023-12-17T13:28:08.330Z,85.26
2023-12-17T13:30:36.316Z,84.10
2023-12-17T13:33:05.792Z,84.37
2023-12-17T13:35:34.527Z,84.73
2023-12-17T13:38:02.578Z,84.76
2023-12-17T13:40:31.990Z,85.43
2023-12-17T13:43:00.880Z,84.57
2023-12-17T13:45:28.725Z,85.27
2023-12-17T13:47:56.666Z,85.01
2023-12-17T13:50:24.750Z,84.59
2023-12-17T13:52:52.511Z,85.98
2023-12-17T13:55:20.399Z,85.41
2023-12-17T13:57:50.173Z,85.16
2023-12-17T14:00:18.663Z,85.05
2023-12-17T14:02:46.475Z,85.67
2023-12-17T14:05:15.104Z,87.03
2023-12-17T14:07:43.456Z,86.58
2023-12-17T14:10:12.562Z,86.40
2023-12-17T14:12:41.663Z,85.94
2023-12-17T14:15:11.838Z,86.95
2023-12-17T14:17:39.829Z,86.35
2023-12-17T14:20:14.103Z,87.04
2023-12-17T14:22:45.356Z,87.72
2023-12-17T14:25:14.029Z,87.46
2023-12-17T14:27:43.766Z,86.89
2023-12-17T14:30:16.242Z,88.33
2023-12-17T14:32:44.408Z,88.27
2023-12-17T14:35:13.349Z,87.59
2023-12-17T14:37:41.302Z,87.38
2023-12-17T14:40:10.178Z,86.85
2023-12-17T14:42:38.532Z,86.73
2023-12-17T14:45:08.061Z,86.30
2023-12-17T14:47:38.416Z,85.70
2023-12-17T14:50:07.442Z,86.87
2023-12-17T14:52:36.169Z,86.96
2023-12-17T14:55:04.163Z,87.03
2023-12-17T14:57:32.905Z,86.96
2023-12-17T15:00:00.948Z,86.61
2023-12-17T15:02:30.010Z,88.96
2023-12-17T15:04:59.182Z,90.48
2023-12-17T15:07:27.048Z,91.54
2023-12-17T15:10:01.941Z,92.87
2023-12-17T15:12:30.251Z,92.49
2023-12-17T15:14:58.122Z,93.30
2023-12-17T15:17:26.648Z,93.43
2023-12-17T15:19:54.941Z,94.00
2023-12-17T15:22:24.105Z,95.42
2023-12-17T15:24:52.152Z,95.58
2023-12-17T15:27:20.172Z,96.25
2023-12-17T15:29:47.970Z,96.09
2023-12-17T15:32:16.118Z,97.05
2023-12-17T15:34:44.032Z,96.79
2023-12-17T15:37:12.267Z,98.10
2023-12-17T15:39:42.721Z,97.87
2023-12-17T15:42:11.006Z,98.03
2023-12-17T15:44:40.370Z,97.74
2023-12-17T15:47:08.288Z,98.12
2023-12-17T15:49:38.941Z,98.21
2023-12-17T15:52:07.964Z,98.16
2023-12-17T15:54:36.283Z,99.13
2023-12-17T15:57:06.272Z,99.65
2023-12-17T15:59:35.901Z,98.75
2023-12-17T16:02:04.204Z,99.13
2023-12-17T16:04:32.790Z,100.00
2023-12-17T16:07:00.898Z,99.89
2023-12-17T16:09:29.211Z,99.89
2023-12-17T16:11:57.190Z,100.00
2023-12-17T16:14:26.489Z,100.00
2023-12-17T16:16:54.774Z,100.00
2023-12-17T16:19:22.660Z,100.00
2023-12-17T16:21:52.901Z,100.00
2023-12-17T16:24:21.093Z,100.00
2023-12-17T16:26:49.386Z,100.00
2023-12-17T16:29:18.177Z,100.00
2023-12-17T16:31:47.636Z,100.00
2023-12-17T16:34:15.554Z,100.00
2023-12-17T16:36:44.642Z,100.00
2023-12-17T16:39:13.475Z,100.00
2023-12-17T16:41:45.596Z,100.00
2023-12-17T16:44:13.744Z,100.00
2023-12-17T16:46:41.984Z,100.00
2023-12-17T16:49:12.034Z,100.00
2023-12-17T16:51:39.899Z,100.00
2023-12-17T16:54:08.036Z,100.00
2023-12-17T16:56:35.881Z,100.00
2023-12-17T16:59:04.480Z,100.00
2023-12-17T17:01:32.329Z,100.00
2023-12-17T17:04:00.542Z,100.00
2023-12-17T17:06:29.724Z,100.00
2023-12-17T17:08:57.525Z,100.00
2023-12-17T17:11:25.624Z,100.00
2023-12-17T17:13:53.428Z,100.00
2023-12-17T17:16:22.586Z,100.00
2023-12-17T17:18:50.616Z,100.00
2023-12-17T17:21:19.167Z,100.00
2023-12-17T17:23:48.370Z,100.00
2023-12-17T17:26:16.617Z,100.00
2023-12-17T17:28:45.209Z,100.00
2023-12-17T17:31:13.394Z,100.00
2023-12-17T17:33:41.437Z,100.00
2023-12-17T17:36:10.192Z,100.00
2023-12-17T17:38:39.800Z,100.00
2023-12-17T17:41:11.315Z,100.00
2023-12-17T17:43:39.169Z,100.00
2023-12-17T17:46:07.685Z,100.00
2023-12-17T17:48:36.323Z,100.00
2023-12-17T17:51:05.738Z,100.00
2023-12-17T17:53:34.749Z,100.00
2023-12-17T17:56:04.752Z,100.00
2023-12-17T17:58:33.994Z,100.00
2023-12-17T18:01:01.993Z,100.00
2023-12-17T18:03:29.879Z,100.00
2023-12-17T18:05:57.983Z,100.00
2023-12-17T18:08:26.125Z,100.00
2023-12-17T18:10:53.853Z,100.00
2023-12-17T18:13:23.519Z,100.00
2023-12-17T18:15:53.008Z,100.00
2023-12-17T18:18:21.307Z,100.00
2023-12-17T18:20:49.172Z,100.00
2023-12-17T18:23:17.325Z,100.00
2023-12-17T18:25:46.291Z,100.00
2023-12-17T18:28:14.883Z,100.00
2023-12-17T18:30:44.063Z,100.00
2023-12-17T18:33:14.175Z,100.00
2023-12-17T18:35:42.424Z,100.00
2023-12-17T18:38:10.187Z,100.00
2023-12-17T18:40:38.370Z,100.00
2023-12-17T18:43:06.213Z,100.00
2023-12-17T18:45:34.345Z,100.00
2023-12-17T18:48:02.649Z,100.00
2023-12-17T18:50:32.008Z,100.00
2023-12-17T18:53:00.360Z,100.00
2023-12-17T18:55:28.201Z,100.00
2023-12-17T18:57:56.015Z,100.00
2023-12-17T19:00:23.932Z,100.00
2023-12-17T19:02:52.116Z,100.00
2023-12-17T19:05:19.942Z,100.00
2023-12-17T19:07:49.870Z,100.00
2023-12-17T19:10:18.629Z,100.00
2023-12-17T19:12:49.133Z,100.00
2023-12-17T19:15:17.822Z,100.00
2023-12-17T19:17:45.715Z,100.00
2023-12-17T19:20:13.654Z,100.00
2023-12-17T19:22:41.603Z,100.00
2023-12-17T19:25:11.312Z,100.00
2023-12-17T19:27:39.162Z,100.00
2023-12-17T19:30:09.248Z,100.00
2023-12-17T19:32:37.172Z,100.00
2023-12-17T19:35:05.856Z,100.00
2023-12-17T19:37:33.999Z,100.00
2023-12-17T19:40:01.952Z,100.00
2023-12-17T19:42:31.388Z,100.00
2023-12-17T19:44:59.190Z,100.00
2023-12-17T19:47:27.038Z,100.00
2023-12-17T19:49:54.950Z,100.00
2023-12-17T19:52:23.044Z,100.00
2023-12-17T19:54:50.879Z,100.00
2023-12-17T19:57:18.728Z,100.00
2023-12-17T19:59:50.081Z,100.00
2023-12-17T20:02:17.922Z,100.00
2023-12-17T20:04:45.910Z,100.00
2023-12-17T20:07:14.160Z,100.00
2023-12-17T20:09:42.327Z,100.00
2023-12-17T20:12:10.359Z,100.00
2023-12-17T20:14:38.580Z,100.00
2023-12-17T20:17:07.861Z,100.00
2023-12-17T20:19:35.943Z,100.00
2023-12-17T20:22:03.822Z,100.00
2023-12-17T20:24:31.933Z,100.00
2023-12-17T20:26:59.765Z,100.00
2023-12-17T20:29:27.491Z,100.00
2023-12-17T20:31:56.440Z,100.00
2023-12-17T20:34:25.908Z,100.00
2023-12-17T20:36:54.020Z,100.00
2023-12-17T20:39:21.790Z,100.00
2023-12-17T20:41:49.996Z,100.00
2023-12-17T20:44:18.074Z,100.00
2023-12-17T20:46:47.230Z,100.00
2023-12-17T20:49:15.235Z,100.00
2023-12-17T20:51:44.698Z,100.00
2023-12-17T20:54:12.810Z,100.00
2023-12-17T20:56:43.654Z,100.00
2023-12-17T20:59:11.554Z,100.00
2023-12-17T21:01:39.576Z,100.00
2023-12-17T21:04:07.487Z,100.00
2023-12-17T21:06:35.580Z,100.00
2023-12-17T21:09:05.408Z,100.00
2023-12-17T21:11:33.316Z,100.00
2023-12-17T21:14:01.342Z,100.00
2023-12-17T21:16:29.592Z,100.00
2023-12-17T21:18:58.113Z,100.00
2023-12-17T21:21:26.024Z,100.00
2023-12-17T21:23:53.782Z,100.00
2023-12-17T21:26:23.389Z,100.00
2023-12-17T21:28:51.138Z,100.00
2023-12-17T21:31:19.420Z,100.00
2023-12-17T21:33:47.302Z,100.00
2023-12-17T21:36:15.351Z,100.00
2023-12-17T21:38:44.251Z,100.00
2023-12-17T21:41:12.334Z,100.00
2023-12-17T21:43:42.170Z,100.00
2023-12-17T21:46:11.945Z,100.00
2023-12-17T21:48:40.078Z,100.00
2023-12-17T21:51:07.951Z,100.00
2023-12-17T21:53:35.889Z,100.00
2023-12-17T21:56:03.771Z,100.00
2023-12-17T21:58:32.197Z,100.00
2023-12-17T22:01:01.528Z,100.00
2023-12-17T22:03:29.832Z,100.00
2023-12-17T22:05:57.737Z,100.00
2023-12-17T22:08:25.796Z,100.00
2023-12-17T22:10:53.662Z,100.00
2023-12-17T22:13:21.686Z,100.00
2023-12-17T22:15:49.498Z,100.00
2023-12-17T22:18:19.068Z,100.00
2023-12-17T22:20:46.908Z,100.00
2023-12-17T22:23:14.940Z,100.00
2023-12-17T22:25:42.743Z,100.00
2023-12-17T22:28:10.544Z,100.00
2023-12-17T22:30:38.858Z,100.00
2023-12-17T22:33:07.038Z,100.00
2023-12-17T22:35:36.318Z,100.00
2023-12-17T22:38:04.739Z,100.00
2023-12-17T22:40:32.831Z,100.00
2023-12-17T22:43:00.565Z,100.00
2023-12-17T22:45:28.532Z,100.00
2023-12-17T22:47:56.425Z,100.00
2023-12-17T22:50:24.238Z,100.00
2023-12-17T22:52:53.794Z,100.00
2023-12-17T22:55:21.629Z,100.00
2023-12-17T22:57:49.654Z,100.00
2023-12-17T23:00:19.078Z,100.00
2023-12-17T23:02:48.490Z,100.00
2023-12-17T23:05:19.167Z,100.00
2023-12-17T23:07:47.026Z,100.00
2023-12-17T23:10:18.775Z,100.00
2023-12-17T23:12:47.012Z,100.00
2023-12-17T23:15:14.941Z,100.00
2023-12-17T23:17:43.123Z,100.00
2023-12-17T23:20:12.454Z,100.00
2023-12-17T23:22:40.332Z,100.00
2023-12-17T23:25:09.089Z,100.00
2023-12-17T23:27:38.678Z,100.00
2023-12-17T23:30:08.302Z,100.00
2023-12-17T23:32:36.918Z,100.00
2023-12-17T23:35:05.147Z,100.00
2023-12-17T23:37:33.337Z,100.00
2023-12-17T23:40:01.099Z,100.00
2023-12-17T23:42:29.187Z,100.00
2023-12-17T23:45:06.515Z,100.00
2023-12-17T23:47:36.548Z,100.00
2023-12-17T23:50:04.707Z,100.00
2023-12-17T23:52:33.130Z,100.00
2023-12-17T23:55:02.198Z,100.00
2023-12-17T23:57:30.160Z,100.00
2023-12-17T23:59:59.484Z,100.00
